createdAt,value
2023-07-12T00:01:27.400Z,99854.38
2023-07-12T00:03:54.730Z,99861.72
2023-07-12T00:06:33.600Z,99865.25
2023-07-12T00:09:00.302Z,99863.41
2023-07-12T00:11:27.143Z,99861.94
2023-07-12T00:13:58.605Z,99856.22
2023-07-12T00:16:34.645Z,99863.16
2023-07-12T00:19:02.169Z,99859.47
2023-07-12T00:21:31.024Z,99856.97
2023-07-12T00:24:03.275Z,99853.66
2023-07-12T00:26:32.718Z,99860.75
2023-07-12T00:29:03.716Z,99864.50
2023-07-12T00:31:32.580Z,99875.00
2023-07-12T00:34:02.119Z,99867.72
2023-07-12T00:36:34.144Z,99870.34
2023-07-12T00:39:02.947Z,99867.63
2023-07-12T00:41:41.898Z,99859.28
2023-07-12T00:44:19.866Z,99860.56
2023-07-12T00:46:49.902Z,99869.94
2023-07-12T00:49:16.871Z,99865.81
2023-07-12T00:51:59.655Z,99860.56
2023-07-12T00:55:00.455Z,99855.88
2023-07-12T00:57:30.363Z,99853.97
2023-07-12T01:00:12.756Z,99861.41
2023-07-12T01:02:48.807Z,99864.81
2023-07-12T01:05:19.557Z,99854.28
2023-07-12T01:07:48.769Z,99856.38
2023-07-12T01:10:15.587Z,99842.84
2023-07-12T01:12:42.273Z,99845.81
2023-07-12T01:15:12.002Z,99830.88
2023-07-12T01:17:38.755Z,99831.16
2023-07-12T01:20:08.960Z,99824.78
2023-07-12T01:22:38.264Z,99823.13
2023-07-12T01:25:07.307Z,99832.22
2023-07-12T01:27:34.403Z,99827.19
2023-07-12T01:30:03.521Z,99821.31
2023-07-12T01:32:31.887Z,99819.94
2023-07-12T01:34:58.682Z,99819.88
2023-07-12T01:37:25.718Z,99815.63
2023-07-12T01:39:52.398Z,99829.59
2023-07-12T01:42:19.042Z,99827.50
2023-07-12T01:44:45.750Z,99830.72
2023-07-12T01:47:12.380Z,99833.28
2023-07-12T01:49:41.252Z,99832.44
2023-07-12T01:52:08.556Z,99830.63
2023-07-12T01:54:37.372Z,99827.50
2023-07-12T01:57:04.518Z,99832.66
2023-07-12T01:59:36.606Z,99835.84
2023-07-12T02:04:35.508Z,99839.56
2023-07-12T02:07:05.618Z,99842.16
2023-07-12T02:09:38.759Z,99837.66
2023-07-12T02:12:05.974Z,99843.28
2023-07-12T02:14:32.646Z,99834.56
2023-07-12T02:17:02.094Z,99835.31
2023-07-12T02:19:34.703Z,99827.19
2023-07-12T02:22:03.974Z,99831.03
2023-07-12T02:24:33.670Z,99829.38
2023-07-12T02:27:00.366Z,99817.81
2023-07-12T02:29:29.223Z,99812.75
2023-07-12T02:32:00.666Z,99810.94
2023-07-12T02:34:27.569Z,99793.38
2023-07-12T02:36:56.989Z,99794.28
2023-07-12T02:39:25.998Z,99797.44
2023-07-12T02:41:52.857Z,99802.22
2023-07-12T02:44:19.534Z,99802.41
2023-07-12T02:46:46.183Z,99798.94
2023-07-12T02:49:17.047Z,99801.97
2023-07-12T02:51:44.476Z,99802.06
2023-07-12T02:54:16.400Z,99806.25
2023-07-12T02:56:45.421Z,99798.81
2023-07-12T02:59:12.138Z,99798.38
2023-07-12T03:01:39.043Z,99797.25
2023-07-12T03:04:07.987Z,99787.75
2023-07-12T03:06:37.675Z,99784.31
2023-07-12T03:09:06.427Z,99783.31
2023-07-12T03:11:35.774Z,99781.91
2023-07-12T03:14:03.139Z,99790.06
2023-07-12T03:16:32.993Z,99777.19
2023-07-12T03:19:02.950Z,99788.75
2023-07-12T03:21:29.823Z,99792.28
2023-07-12T03:23:56.521Z,99787.22
2023-07-12T03:26:27.410Z,99796.34
2023-07-12T03:28:54.121Z,99801.69
2023-07-12T03:31:20.962Z,99797.88
2023-07-12T03:33:48.078Z,99800.34
2023-07-12T03:36:25.940Z,99792.28
2023-07-12T03:38:53.837Z,99799.78
2023-07-12T03:41:24.481Z,99795.50
2023-07-12T03:43:53.712Z,99800.28
2023-07-12T03:46:25.750Z,99796.72
2023-07-12T03:48:52.778Z,99801.94
2023-07-12T03:51:23.960Z,99804.66
2023-07-12T03:53:53.371Z,99801.50
2023-07-12T03:56:20.212Z,99803.53
2023-07-12T03:58:51.698Z,99802.44
2023-07-12T04:01:19.429Z,99808.97
2023-07-12T04:03:48.666Z,99807.28
2023-07-12T04:06:15.817Z,99802.13
2023-07-12T04:08:42.573Z,99805.16
2023-07-12T04:11:25.523Z,99813.34
2023-07-12T04:13:54.863Z,99813.88
2023-07-12T04:16:27.840Z,99819.91
2023-07-12T04:18:59.421Z,99823.91
2023-07-12T04:21:26.568Z,99813.53
2023-07-12T04:23:55.947Z,99814.59
2023-07-12T04:26:25.790Z,99821.00
2023-07-12T04:28:53.213Z,99818.97
2023-07-12T04:31:23.485Z,99815.00
2023-07-12T04:33:53.679Z,99791.59
2023-07-12T04:36:20.792Z,99776.38
2023-07-12T04:38:50.319Z,99782.06
2023-07-12T04:41:18.321Z,99793.25
2023-07-12T04:43:45.108Z,99793.53
2023-07-12T04:46:11.989Z,99783.66
2023-07-12T04:48:38.658Z,99767.84
2023-07-12T04:51:08.323Z,99782.94
2023-07-12T04:53:37.864Z,99791.47
2023-07-12T04:56:05.189Z,99795.84
2023-07-12T04:58:34.627Z,99787.09
2023-07-12T05:01:03.372Z,99793.28
2023-07-12T05:03:33.480Z,99800.50
2023-07-12T05:06:13.650Z,99797.19
2023-07-12T05:08:51.813Z,99799.19
2023-07-12T05:11:18.981Z,99804.66
2023-07-12T05:13:48.097Z,99802.63
2023-07-12T05:16:14.910Z,99791.78
2023-07-12T05:18:42.107Z,99795.28
2023-07-12T05:21:10.659Z,99806.41
2023-07-12T05:23:38.540Z,99801.34
2023-07-12T05:26:05.166Z,99806.13
2023-07-12T05:28:36.454Z,99808.56
2023-07-12T05:31:13.922Z,99797.78
2023-07-12T05:33:47.696Z,99784.53
2023-07-12T05:36:15.570Z,99783.56
2023-07-12T05:38:42.919Z,99789.34
2023-07-12T05:41:14.877Z,99791.56
2023-07-12T05:43:42.782Z,99790.09
2023-07-12T05:46:09.681Z,99779.34
2023-07-12T05:48:41.449Z,99772.03
2023-07-12T05:51:09.752Z,99774.41
2023-07-12T05:53:36.776Z,99786.78
2023-07-12T05:56:07.860Z,99791.56
2023-07-12T05:58:36.504Z,99786.84
2023-07-12T06:01:04.358Z,99773.22
2023-07-12T06:03:33.910Z,99772.66
2023-07-12T06:06:01.393Z,99770.28
2023-07-12T06:08:30.857Z,99767.56
2023-07-12T06:10:57.516Z,99767.91
2023-07-12T06:13:24.315Z,99764.59
2023-07-12T06:15:53.469Z,99758.72
2023-07-12T06:18:22.735Z,99746.34
2023-07-12T06:20:56.382Z,99739.38
2023-07-12T06:23:23.044Z,99732.53
2023-07-12T06:25:49.906Z,99724.69
2023-07-12T06:28:18.725Z,99718.50
2023-07-12T06:30:47.883Z,99715.44
2023-07-12T06:33:16.903Z,99725.16
2023-07-12T06:35:48.428Z,99718.47
2023-07-12T06:38:18.492Z,99723.56
2023-07-12T06:40:46.777Z,99725.28
2023-07-12T06:43:15.776Z,99734.75
2023-07-12T06:45:46.300Z,99729.41
2023-07-12T06:48:15.619Z,99721.03
2023-07-12T06:50:47.830Z,99729.09
2023-07-12T06:53:14.423Z,99733.91
2023-07-12T06:55:46.791Z,99729.03
2023-07-12T06:58:16.472Z,99736.38
2023-07-12T07:00:44.818Z,99732.66
2023-07-12T07:03:13.640Z,99744.09
2023-07-12T07:05:42.251Z,99734.06
2023-07-12T07:08:09.042Z,99725.00
2023-07-12T07:10:36.152Z,99718.59
2023-07-12T07:13:02.839Z,99726.63
2023-07-12T07:15:32.008Z,99713.63
2023-07-12T07:18:05.751Z,99705.16
2023-07-12T07:20:33.164Z,99696.38
2023-07-12T07:23:00.342Z,99694.75
2023-07-12T07:25:29.485Z,99678.31
2023-07-12T07:27:59.619Z,99671.66
2023-07-12T07:30:29.304Z,99663.88
2023-07-12T07:32:58.417Z,99661.53
2023-07-12T07:35:27.717Z,99660.75
2023-07-12T07:37:57.102Z,99668.00
2023-07-12T07:40:23.746Z,99653.56
2023-07-12T07:42:53.235Z,99639.25
2023-07-12T07:45:19.951Z,99635.69
2023-07-12T07:47:46.682Z,99638.78
2023-07-12T07:50:16.052Z,99641.84
2023-07-12T07:52:42.761Z,99630.00
2023-07-12T07:55:11.989Z,99618.00
2023-07-12T07:57:40.791Z,99626.34
2023-07-12T08:00:11.749Z,99620.19
2023-07-12T08:02:39.478Z,99607.41
2023-07-12T08:05:09.120Z,99609.78
2023-07-12T08:07:47.670Z,99610.63
2023-07-12T08:10:19.094Z,99603.41
2023-07-12T08:12:49.471Z,99605.97
2023-07-12T08:15:19.528Z,99596.41
2023-07-12T08:17:48.752Z,99592.19
2023-07-12T08:20:16.371Z,99585.69
2023-07-12T08:22:43.255Z,99578.88
2023-07-12T08:25:12.910Z,99578.13
2023-07-12T08:27:45.228Z,99582.66
2023-07-12T08:30:15.833Z,99582.84
2023-07-12T08:32:44.747Z,99579.84
2023-07-12T08:35:13.708Z,99577.59
2023-07-12T08:37:42.372Z,99572.94
2023-07-12T08:40:14.443Z,99581.16
2023-07-12T08:42:45.433Z,99584.59
2023-07-12T08:45:18.434Z,99593.97
2023-07-12T08:47:47.053Z,99592.44
2023-07-12T08:50:15.335Z,99590.59
2023-07-12T08:52:43.535Z,99591.50
2023-07-12T08:55:15.885Z,99593.25
2023-07-12T08:57:43.071Z,99590.81
2023-07-12T09:00:20.951Z,99595.31
2023-07-12T09:02:50.024Z,99593.38
2023-07-12T09:05:20.970Z,99602.56
2023-07-12T09:08:03.152Z,99610.84
2023-07-12T09:10:46.035Z,99619.88
2023-07-12T09:13:16.638Z,99612.53
2023-07-12T09:15:56.242Z,99616.47
2023-07-12T09:18:35.422Z,99608.97
2023-07-12T09:21:16.521Z,99616.38
2023-07-12T09:23:45.337Z,99617.00
2023-07-12T09:26:21.332Z,99621.69
2023-07-12T09:28:48.232Z,99615.75
2023-07-12T09:31:21.491Z,99615.09
2023-07-12T09:33:56.050Z,99615.97
2023-07-12T09:36:22.720Z,99630.69
2023-07-12T09:38:49.630Z,99633.78
2023-07-12T09:41:21.786Z,99628.47
2023-07-12T09:43:59.170Z,99644.97
2023-07-12T09:46:32.170Z,99644.31
2023-07-12T09:49:10.326Z,99630.63
2023-07-12T09:51:45.013Z,99633.22
2023-07-12T09:54:39.749Z,99635.59
2023-07-12T09:57:41.786Z,99616.50
2023-07-12T10:00:17.527Z,99613.19
2023-07-12T10:03:24.133Z,99618.88
2023-07-12T10:06:01.254Z,99624.13
2023-07-12T10:08:42.163Z,99613.06
2023-07-12T10:11:23.073Z,99608.06
2023-07-12T10:13:58.463Z,99600.19
2023-07-12T10:16:35.905Z,99617.16
2023-07-12T10:19:24.490Z,99611.75
2023-07-12T10:21:53.609Z,99612.78
2023-07-12T10:24:25.961Z,99594.47
2023-07-12T10:26:56.389Z,99591.81
2023-07-12T10:29:31.795Z,99592.78
2023-07-12T10:32:06.179Z,99587.22
2023-07-12T10:34:35.750Z,99587.38
2023-07-12T10:37:15.957Z,99583.50
2023-07-12T10:39:53.148Z,99578.34
2023-07-12T10:42:43.448Z,99575.41
2023-07-12T10:45:26.959Z,99561.97
2023-07-12T10:47:55.593Z,99562.38
2023-07-12T10:50:44.749Z,99551.00
2023-07-12T10:53:36.306Z,99558.00
2023-07-12T10:56:09.475Z,99556.91
2023-07-12T10:58:52.206Z,99558.00
2023-07-12T11:01:46.788Z,99562.09
2023-07-12T11:04:16.188Z,99564.75
2023-07-12T11:07:02.594Z,99566.22
2023-07-12T11:09:49.844Z,99564.06
2023-07-12T11:12:31.500Z,99571.38
2023-07-12T11:15:06.691Z,99569.56
2023-07-12T11:17:55.560Z,99568.53
2023-07-12T11:20:25.629Z,99572.13
2023-07-12T11:23:00.483Z,99571.25
2023-07-12T11:25:45.811Z,99567.22
2023-07-12T11:28:21.802Z,99576.75
2023-07-12T11:31:12.796Z,99582.13
2023-07-12T11:33:46.748Z,99588.13
2023-07-12T11:36:26.161Z,99585.47
2023-07-12T11:38:55.233Z,99579.38
2023-07-12T11:41:27.349Z,99586.59
2023-07-12T11:44:02.593Z,99590.09
2023-07-12T11:46:37.051Z,99586.06
2023-07-12T11:49:18.761Z,99583.72
2023-07-12T11:51:49.128Z,99582.50
2023-07-12T11:54:26.312Z,99582.84
2023-07-12T11:56:57.059Z,99583.59
2023-07-12T11:59:32.768Z,99582.19
2023-07-12T12:02:00.657Z,99575.44
2023-07-12T12:04:32.614Z,99580.22
2023-07-12T12:07:08.461Z,99581.31
2023-07-12T12:09:39.097Z,99581.00
2023-07-12T12:12:08.697Z,99587.38
2023-07-12T12:14:41.651Z,99585.50
2023-07-12T12:17:16.401Z,99579.59
2023-07-12T12:19:50.922Z,99585.63
2023-07-12T12:22:26.863Z,99587.13
2023-07-12T12:25:00.592Z,99580.63
2023-07-12T12:27:38.824Z,99583.97
2023-07-12T12:30:32.432Z,99579.78
2023-07-12T12:33:26.933Z,99570.47
2023-07-12T12:36:01.331Z,99573.50
2023-07-12T12:38:36.950Z,99572.97
2023-07-12T12:41:20.209Z,99575.78
2023-07-12T12:44:09.156Z,99572.22
2023-07-12T12:54:30.672Z,99545.78
2023-07-12T12:58:11.910Z,99552.91
2023-07-12T13:00:31.667Z,99550.28
2023-07-12T13:08:44.359Z,99545.03
2023-07-12T13:18:27.579Z,99534.75
2023-07-12T13:20:54.716Z,99537.81
2023-07-12T13:23:37.933Z,99532.81
2023-07-12T13:26:13.076Z,99531.28
2023-07-12T13:28:39.738Z,99529.00
2023-07-12T13:31:11.266Z,99533.50
2023-07-12T13:33:40.666Z,99527.56
2023-07-12T13:36:26.662Z,99524.53
2023-07-12T13:46:31.520Z,99517.53
2023-07-12T13:49:00.030Z,99512.91
2023-07-12T13:51:29.393Z,99511.53
2023-07-12T13:53:56.700Z,99511.81
2023-07-12T14:04:23.396Z,99497.22
2023-07-12T14:13:25.610Z,99497.59
2023-07-12T14:15:52.660Z,99491.06
2023-07-12T14:18:21.741Z,99492.56
2023-07-12T14:20:49.712Z,99493.25
2023-07-12T14:23:21.613Z,99493.63
2023-07-12T14:25:51.094Z,99500.97
2023-07-12T14:28:17.901Z,99505.28
2023-07-12T14:31:01.861Z,99499.09
2023-07-12T14:33:36.987Z,99502.72
2023-07-12T14:36:04.601Z,99492.13
2023-07-12T14:38:33.572Z,99493.44
2023-07-12T14:41:04.066Z,99489.47
2023-07-12T14:43:33.338Z,99486.31
2023-07-12T14:46:02.802Z,99494.81
2023-07-12T14:48:32.810Z,99488.63
2023-07-12T14:51:02.504Z,99494.56
2023-07-12T14:53:29.146Z,99491.44
2023-07-12T14:56:00.686Z,99494.72
2023-07-12T14:58:27.456Z,99489.72
2023-07-12T15:00:56.705Z,99490.38
2023-07-12T15:03:25.013Z,99480.72
2023-07-12T15:05:53.982Z,99476.22
2023-07-12T15:08:29.909Z,99472.63
2023-07-12T15:10:58.369Z,99471.25
2023-07-12T15:13:27.610Z,99470.13
2023-07-12T15:15:57.037Z,99466.69
2023-07-12T15:18:25.856Z,99452.81
2023-07-12T15:21:05.713Z,99455.44
2023-07-12T15:23:35.882Z,99454.22
2023-07-12T15:26:02.734Z,99448.69
2023-07-12T15:28:33.007Z,99461.34
2023-07-12T15:31:02.045Z,99456.50
2023-07-12T15:33:32.149Z,99470.59
2023-07-12T15:36:05.175Z,99470.84
2023-07-12T15:38:32.034Z,99476.75
2023-07-12T15:41:13.259Z,99473.09
2023-07-12T15:43:42.691Z,99478.28
2023-07-12T15:46:21.619Z,99485.91
2023-07-12T15:48:50.898Z,99486.47
2023-07-12T15:51:35.734Z,99491.56
2023-07-12T15:54:22.520Z,99497.06
2023-07-12T15:56:52.344Z,99498.63
2023-07-12T15:59:21.662Z,99503.13
2023-07-12T16:01:48.544Z,99503.06
2023-07-12T16:04:24.115Z,99515.13
2023-07-12T16:06:51.199Z,99511.72
2023-07-12T16:09:20.041Z,99519.81
2023-07-12T16:11:51.469Z,99515.81
2023-07-12T16:14:23.452Z,99522.25
2023-07-12T16:16:53.254Z,99522.19
2023-07-12T16:19:23.134Z,99520.16
2023-07-12T16:21:50.077Z,99529.25
2023-07-12T16:24:19.710Z,99530.16
2023-07-12T16:26:47.018Z,99533.91
2023-07-12T16:29:14.118Z,99528.38
2023-07-12T16:31:54.515Z,99527.41
2023-07-12T16:34:26.470Z,99520.41
2023-07-12T16:36:58.832Z,99501.63
2023-07-12T16:39:26.283Z,99503.03
2023-07-12T16:41:53.925Z,99506.44
2023-07-12T16:44:25.344Z,99500.03
2023-07-12T16:46:52.760Z,99509.75
2023-07-12T16:49:22.710Z,99510.81
2023-07-12T16:52:04.515Z,99520.16
2023-07-12T16:54:35.662Z,99514.97
2023-07-12T16:57:02.783Z,99521.38
2023-07-12T16:59:32.856Z,99514.25
2023-07-12T17:02:08.934Z,99519.81
2023-07-12T17:04:40.197Z,99518.34
2023-07-12T17:07:12.292Z,99522.75
2023-07-12T17:09:38.878Z,99523.47
2023-07-12T17:12:13.335Z,99523.53
2023-07-12T17:14:42.050Z,99526.25
2023-07-12T17:17:11.734Z,99530.78
2023-07-12T17:19:38.577Z,99510.91
2023-07-12T17:22:11.694Z,99520.78
2023-07-12T17:24:39.107Z,99519.38
2023-07-12T17:27:11.644Z,99528.09
2023-07-12T17:29:40.715Z,99519.81
2023-07-12T17:32:17.147Z,99525.91
2023-07-12T17:34:46.007Z,99528.50
2023-07-12T17:37:18.047Z,99527.91
2023-07-12T17:39:58.951Z,99528.31
2023-07-12T17:42:29.897Z,99534.00
2023-07-12T17:45:03.010Z,99538.72
2023-07-12T17:47:33.589Z,99541.63
2023-07-12T17:50:05.319Z,99534.06
2023-07-12T17:52:33.665Z,99543.44
2023-07-12T17:55:02.917Z,99543.66
2023-07-12T17:57:32.225Z,99556.13
2023-07-12T17:59:59.835Z,99562.16
2023-07-12T18:02:28.909Z,99567.03
2023-07-12T18:04:59.935Z,99554.44
2023-07-12T18:07:27.397Z,99561.59
2023-07-12T18:09:56.253Z,99559.72
2023-07-12T18:12:24.035Z,99552.72
2023-07-12T18:14:51.741Z,99554.31
2023-07-12T18:17:23.475Z,99556.53
2023-07-12T18:19:53.722Z,99557.38
2023-07-12T18:22:24.970Z,99548.84
2023-07-12T18:24:59.778Z,99543.66
2023-07-12T18:27:26.526Z,99545.53
2023-07-12T18:29:56.274Z,99550.38
2023-07-12T18:32:28.348Z,99558.63
2023-07-12T18:34:57.877Z,99563.66
2023-07-12T18:37:29.965Z,99561.56
2023-07-12T18:39:56.843Z,99563.25
2023-07-12T18:42:31.598Z,99561.75
2023-07-12T18:44:58.285Z,99580.09
2023-07-12T18:47:27.871Z,99574.16
2023-07-12T18:49:57.980Z,99584.38
2023-07-12T18:52:26.930Z,99593.63
2023-07-12T18:54:53.579Z,99603.53
2023-07-12T18:57:23.019Z,99601.94
2023-07-12T18:59:54.489Z,99610.91
2023-07-12T19:02:23.718Z,99612.41
2023-07-12T19:04:50.421Z,99608.13
2023-07-12T19:07:31.956Z,99606.47
2023-07-12T19:09:58.768Z,99611.41
2023-07-12T19:12:29.055Z,99615.38
2023-07-12T19:15:02.568Z,99604.97
2023-07-12T19:17:37.505Z,99612.59
2023-07-12T19:20:04.649Z,99617.44
2023-07-12T19:22:32.868Z,99625.03
2023-07-12T19:24:59.706Z,99618.78
2023-07-12T19:27:42.970Z,99616.03
2023-07-12T19:30:15.284Z,99618.41
2023-07-12T19:32:42.455Z,99618.50
2023-07-12T19:35:25.672Z,99616.41
2023-07-12T19:37:55.559Z,99616.31
2023-07-12T19:40:25.758Z,99620.09
2023-07-12T19:42:54.490Z,99617.56
2023-07-12T19:45:28.593Z,99624.75
2023-07-12T19:47:56.689Z,99627.78
2023-07-12T19:50:26.259Z,99628.53
2023-07-12T19:52:53.005Z,99633.28
2023-07-12T19:55:30.616Z,99633.34
2023-07-12T19:57:59.817Z,99623.63
2023-07-12T20:00:31.236Z,99619.38
2023-07-12T20:03:02.786Z,99622.41
2023-07-12T20:05:34.359Z,99625.06
2023-07-12T20:08:01.123Z,99630.63
2023-07-12T20:10:27.801Z,99634.00
2023-07-12T20:12:58.160Z,99631.75
2023-07-12T20:15:25.060Z,99625.16
2023-07-12T20:17:53.834Z,99630.06
2023-07-12T20:20:25.518Z,99622.72
2023-07-12T20:22:57.487Z,99631.03
2023-07-12T20:25:29.134Z,99626.00
2023-07-12T20:27:58.687Z,99625.34
2023-07-12T20:30:28.325Z,99626.31
2023-07-12T20:32:55.104Z,99615.84
2023-07-12T20:35:24.664Z,99610.06
2023-07-12T20:37:54.765Z,99613.13
2023-07-12T20:40:21.540Z,99611.97
2023-07-12T20:42:55.597Z,99609.22
2023-07-12T20:45:24.838Z,99609.91
2023-07-12T20:47:56.662Z,99611.97
2023-07-12T20:50:28.358Z,99609.22
2023-07-12T20:53:00.570Z,99618.53
2023-07-12T20:55:30.425Z,99618.13
2023-07-12T20:58:02.334Z,99606.59
2023-07-12T21:00:48.037Z,99612.06
2023-07-12T21:03:15.164Z,99617.16
2023-07-12T21:05:42.005Z,99622.53
2023-07-12T21:08:11.447Z,99614.97
2023-07-12T21:10:40.789Z,99616.00
2023-07-12T21:13:12.434Z,99607.69
2023-07-12T21:15:43.464Z,99605.34
2023-07-12T21:18:10.097Z,99606.91
2023-07-12T21:20:38.965Z,99610.28
2023-07-12T21:23:08.291Z,99608.44
2023-07-12T21:25:36.984Z,99612.16
2023-07-12T21:28:06.098Z,99621.03
2023-07-12T21:30:36.207Z,99617.88
2023-07-12T21:33:06.884Z,99614.38
2023-07-12T21:35:33.630Z,99602.72
2023-07-12T21:38:00.777Z,99605.28
2023-07-12T21:40:27.610Z,99610.56
2023-07-12T21:42:54.528Z,99612.41
2023-07-12T21:45:21.445Z,99632.66
2023-07-12T21:47:48.366Z,99629.94
2023-07-12T21:50:17.548Z,99627.69
2023-07-12T21:52:46.824Z,99629.28
2023-07-12T21:55:15.782Z,99628.88
2023-07-12T21:57:44.967Z,99627.94
2023-07-12T22:00:21.942Z,99630.75
2023-07-12T22:02:52.403Z,99625.63
2023-07-12T22:05:19.272Z,99629.72
2023-07-12T22:07:55.346Z,99639.16
2023-07-12T22:10:28.150Z,99661.03
2023-07-12T22:12:58.664Z,99661.19
2023-07-12T22:15:26.782Z,99664.19
2023-07-12T22:17:57.015Z,99670.09
2023-07-12T22:20:24.291Z,99676.44
2023-07-12T22:22:55.723Z,99687.59
2023-07-12T22:25:22.873Z,99685.81
2023-07-12T22:27:49.924Z,99693.63
2023-07-12T22:30:27.495Z,99705.19
2023-07-12T22:32:57.100Z,99705.59
2023-07-12T22:35:28.895Z,99708.72
2023-07-12T22:37:56.664Z,99716.44
2023-07-12T22:40:24.762Z,99715.03
2023-07-12T22:42:52.110Z,99720.47
2023-07-12T22:45:22.685Z,99723.50
2023-07-12T22:47:49.619Z,99722.47
2023-07-12T22:50:19.162Z,99707.59
2023-07-12T22:52:48.138Z,99706.75
2023-07-12T22:55:15.176Z,99694.28
2023-07-12T22:57:43.144Z,99689.34
2023-07-12T23:00:16.502Z,99684.19
2023-07-12T23:02:45.585Z,99677.84
2023-07-12T23:05:13.545Z,99677.69
2023-07-12T23:07:42.811Z,99687.09
2023-07-12T23:10:14.111Z,99684.06
2023-07-12T23:12:43.327Z,99685.75
2023-07-12T23:15:17.116Z,99678.25
2023-07-12T23:17:52.645Z,99685.47
2023-07-12T23:20:21.548Z,99691.34
2023-07-12T23:22:48.300Z,99707.16
2023-07-12T23:25:26.348Z,99726.78
2023-07-12T23:27:54.965Z,99726.53
2023-07-12T23:30:25.416Z,99732.06
2023-07-12T23:32:53.322Z,99731.13
2023-07-12T23:35:23.732Z,99718.97
2023-07-12T23:37:50.488Z,99717.19
2023-07-12T23:40:17.189Z,99724.53
2023-07-12T23:42:43.985Z,99716.59
2023-07-12T23:45:13.402Z,99705.03
2023-07-12T23:47:40.108Z,99709.22
2023-07-12T23:50:07.713Z,99701.88
2023-07-12T23:52:34.330Z,99714.06
2023-07-12T23:55:03.981Z,99700.53
2023-07-12T23:57:33.345Z,99694.75
